Time;durP1;ratioP1;P1;durP2;ratioP2;P2;SDS_P1;SDS_P2;PMS_P1;PMS_P2;Temp;Humidity;BMP_temperature;BMP_pressure;BME280_temperature;BME280_humidity;BME280_pressure;Samples;Min_cycle;Max_cycle;Signal;HPM_P1;HPM_P2
2021/08/12 00:00:40;;;;;;;26.13;17.92;;;;;;;19.84;100.00;99069.41;5031561;28;20045;-58
2021/08/12 00:03:06;;;;;;;28.98;18.63;;;;;;;19.86;100.00;99064.00;5030654;28;20041;-58
2021/08/12 00:05:32;;;;;;;27.27;19.00;;;;;;;19.86;100.00;99056.94;5031437;28;20456;-57
2021/08/12 00:07:58;;;;;;;29.83;22.02;;;;;;;19.86;100.00;99054.28;5030438;28;20037;-59
2021/08/12 00:10:24;;;;;;;29.88;22.60;;;;;;;19.89;100.00;99066.38;5031314;28;20127;-58
2021/08/12 00:12:50;;;;;;;22.92;16.90;;;;;;;19.87;100.00;99053.34;5029923;28;20132;-57
2021/08/12 00:15:15;;;;;;;22.17;17.73;;;;;;;19.88;100.00;99044.47;5031331;28;20033;-58
2021/08/12 00:17:41;;;;;;;19.38;14.75;;;;;;;19.89;100.00;99047.91;5029156;28;20046;-58
2021/08/12 00:20:07;;;;;;;19.45;15.23;;;;;;;19.91;100.00;99050.44;5031319;28;20037;-59
2021/08/12 00:22:33;;;;;;;21.58;16.55;;;;;;;19.77;100.00;99017.28;5031178;28;20076;-58
2021/08/12 00:24:59;;;;;;;24.63;17.42;;;;;;;19.93;100.00;99037.97;5030732;28;20547;-58
2021/08/12 00:27:25;;;;;;;26.55;18.33;;;;;;;19.95;100.00;99033.38;5030437;28;20045;-59
2021/08/12 00:29:51;;;;;;;19.98;14.85;;;;;;;19.96;100.00;99032.41;5018561;28;20110;-58
2021/08/12 00:32:17;;;;;;;24.42;15.48;;;;;;;19.80;100.00;98998.56;5030474;28;20160;-58
2021/08/12 00:34:43;;;;;;;20.33;14.88;;;;;;;19.97;100.00;99023.53;5030319;28;20131;-58
2021/08/12 00:37:10;;;;;;;21.98;16.38;;;;;;;19.98;100.00;99025.22;5029249;28;20136;-59
2021/08/12 00:39:35;;;;;;;19.33;15.02;;;;;;;19.99;100.00;99035.66;5029199;28;20222;-58
2021/08/12 00:42:06;;;;;;;19.35;14.50;;;;;;;19.98;100.00;99022.59;5042989;28;20041;-59
2021/08/12 00:44:33;;;;;;;20.65;15.00;;;;;;;20.01;100.00;99031.06;5026287;28;20052;-59
2021/08/12 00:46:59;;;;;;;21.30;15.50;;;;;;;20.03;100.00;99017.75;5025513;28;20047;-59
2021/08/12 00:49:29;;;;;;;20.02;14.77;;;;;;;20.04;100.00;99015.00;5035107;28;20448;-59
2021/08/12 00:51:56;;;;;;;21.40;14.75;;;;;;;20.05;100.00;99010.53;5024643;28;20056;-58
2021/08/12 00:54:23;;;;;;;21.27;15.07;;;;;;;20.06;100.00;99015.69;5013259;28;20571;-59
2021/08/12 00:56:49;;;;;;;20.75;15.70;;;;;;;19.95;100.00;98985.88;5013129;28;20045;-58
2021/08/12 00:59:16;;;;;;;21.17;15.50;;;;;;;20.06;100.00;99007.78;5011208;28;20072;-58
2021/08/12 01:01:42;;;;;;;20.80;15.18;;;;;;;20.06;100.00;98991.09;5029186;28;20045;-59
2021/08/12 01:04:09;;;;;;;18.58;14.60;;;;;;;20.06;100.00;98997.22;5029180;28;20045;-58
2021/08/12 01:06:56;;;;;;;21.10;14.25;;;;;;;19.94;100.00;98974.50;4998758;28;20042;-59
2021/08/12 01:09:32;;;;;;;19.83;14.95;;;;;;;20.08;100.00;98986.53;5009291;28;20049;-59
2021/08/12 01:12:06;;;;;;;20.30;15.23;;;;;;;20.09;100.00;98981.13;5022905;28;20042;-59
2021/08/12 01:14:39;;;;;;;20.08;15.07;;;;;;;20.09;100.00;98975.88;5026184;28;20045;-57
2021/08/12 01:17:08;;;;;;;21.13;15.07;;;;;;;20.10;100.00;98974.03;5028555;28;20064;-58
2021/08/12 01:20:14;;;;;;;18.67;14.70;;;;;;;20.12;100.00;98974.75;5029654;28;20468;-59
2021/08/12 01:22:47;;;;;;;23.50;15.75;;;;;;;20.11;100.00;98987.09;5009597;28;20069;-59
2021/08/12 01:25:21;;;;;;;21.33;15.15;;;;;;;20.12;100.00;99001.97;5042365;28;20053;-59
2021/08/12 01:27:49;;;;;;;22.58;15.65;;;;;;;20.14;100.00;99000.06;5007205;28;20045;-59
2021/08/12 01:30:18;;;;;;;20.90;15.30;;;;;;;20.15;100.00;98999.06;5011836;28;20033;-59
2021/08/12 01:32:52;;;;;;;20.55;15.32;;;;;;;20.11;100.00;98994.19;5011754;28;20056;-58
2021/08/12 01:35:20;;;;;;;20.77;14.52;;;;;;;20.15;100.00;98996.44;5029032;28;20045;-59
2021/08/12 01:38:02;;;;;;;18.08;14.63;;;;;;;20.16;100.00;98992.84;5026080;28;20137;-56
2021/08/12 01:40:31;;;;;;;16.35;13.52;;;;;;;20.16;100.00;98990.19;5020245;28;20103;-58
2021/08/12 01:42:58;;;;;;;17.63;14.27;;;;;;;20.16;100.00;98984.91;5028590;28;20045;-58
2021/08/12 01:45:26;;;;;;;20.55;15.48;;;;;;;20.16;100.00;98990.19;5044992;28;20050;-58
2021/08/12 01:47:53;;;;;;;25.88;15.02;;;;;;;20.15;100.00;99004.34;5027741;28;20513;-57
2021/08/12 01:50:20;;;;;;;17.95;14.35;;;;;;;20.15;100.00;98993.78;5029362;28;20167;-57
2021/08/12 01:52:48;;;;;;;19.67;14.77;;;;;;;20.16;100.00;98992.84;5028138;28;20045;-58
2021/08/12 01:55:18;;;;;;;19.98;14.30;;;;;;;20.18;100.00;98987.44;5011336;28;20041;-58
2021/08/12 01:57:47;;;;;;;19.73;14.80;;;;;;;20.20;100.00;98978.41;5023946;28;20429;-57
2021/08/12 02:00:15;;;;;;;19.90;15.38;;;;;;;20.19;100.00;98971.47;5011662;28;20037;-58
2021/08/12 02:02:43;;;;;;;21.38;15.35;;;;;;;20.21;100.00;98966.03;5028507;28;20068;-58
2021/08/12 02:05:12;;;;;;;23.75;15.55;;;;;;;20.02;100.00;98936.91;5012521;28;20052;-57
2021/08/12 02:07:40;;;;;;;;;;;;;;;20.20;100.00;98959.91;5012006;28;20046;-59
2021/08/12 02:10:06;;;;;;;21.65;15.18;;;;;;;20.17;100.00;98949.63;5029616;28;19920;-59
2021/08/12 02:12:35;;;;;;;22.02;15.95;;;;;;;20.11;100.00;98936.97;5029613;28;20033;-58
2021/08/12 02:15:01;;;;;;;23.95;16.13;;;;;;;20.16;100.00;98949.75;5012034;28;20570;-58
2021/08/12 02:17:30;;;;;;;24.08;16.13;;;;;;;20.14;100.00;98949.91;5027098;28;20116;-58
2021/08/12 02:19:56;;;;;;;25.15;16.52;;;;;;;20.13;100.00;98947.41;5028385;28;20049;-59
2021/08/12 02:22:25;;;;;;;22.42;15.45;;;;;;;20.12;100.00;98945.72;5027217;28;20037;-58
2021/08/12 02:24:56;;;;;;;22.67;15.95;;;;;;;19.99;100.00;98924.84;5012655;28;20064;-58
2021/08/12 02:27:23;;;;;;;21.13;15.98;;;;;;;20.08;100.00;98937.25;5012118;28;20045;-58
2021/08/12 02:29:50;;;;;;;20.00;15.32;;;;;;;20.09;100.00;98930.16;5028114;28;20052;-58
2021/08/12 02:32:17;;;;;;;18.45;15.25;;;;;;;19.88;100.00;98896.72;5022851;28;20056;-59
2021/08/12 02:34:44;;;;;;;20.60;15.05;;;;;;;20.08;100.00;98926.69;5020779;28;20543;-58
2021/08/12 02:37:13;;;;;;;18.48;14.10;;;;;;;20.06;100.00;98919.84;5012036;28;20537;-58
2021/08/12 02:39:40;;;;;;;18.50;13.75;;;;;;;20.05;100.00;98897.06;5028576;28;20098;-58
2021/08/12 02:42:07;;;;;;;16.30;13.40;;;;;;;20.06;100.00;98912.78;5031445;28;20069;-59
2021/08/12 02:44:33;;;;;;;15.02;12.85;;;;;;;20.05;100.00;98908.44;5031968;28;20059;-59
2021/08/12 02:47:02;;;;;;;16.45;13.13;;;;;;;20.07;100.00;98924.16;5015576;28;20080;-59
2021/08/12 02:49:30;;;;;;;16.65;12.48;;;;;;;20.08;100.00;98931.97;5015614;28;20103;-59
2021/08/12 02:51:58;;;;;;;19.42;13.02;;;;;;;20.10;100.00;98929.16;5015448;28;20068;-58
2021/08/12 02:54:24;;;;;;;16.92;12.68;;;;;;;20.12;100.00;98929.88;5014757;28;20124;-58
2021/08/12 02:56:50;;;;;;;16.20;11.82;;;;;;;20.12;100.00;98930.72;5033075;28;20041;-59
2021/08/12 02:59:16;;;;;;;14.27;11.88;;;;;;;20.14;100.00;98931.44;5030760;28;20108;-59
2021/08/12 03:01:43;;;;;;;14.23;12.48;;;;;;;20.18;100.00;98932.00;5031849;28;20041;-58
2021/08/12 03:04:10;;;;;;;17.15;12.68;;;;;;;20.08;100.00;98908.22;5031394;28;20037;-59
2021/08/12 03:06:38;;;;;;;14.25;11.30;;;;;;;20.22;100.00;98917.56;5032593;28;20599;-59
2021/08/12 03:09:03;;;;;;;15.05;11.70;;;;;;;20.25;100.00;98909.41;5014959;28;20093;-59
2021/08/12 03:11:30;;;;;;;14.73;11.93;;;;;;;20.18;100.00;98895.88;5032000;28;20037;-56
2021/08/12 03:13:58;;;;;;;14.00;11.13;;;;;;;20.10;100.00;98869.31;5014662;28;20042;-58
2021/08/12 03:16:24;;;;;;;14.05;11.52;;;;;;;20.35;100.00;98909.47;5015056;28;20164;-59
2021/08/12 03:18:50;;;;;;;12.85;10.75;;;;;;;20.36;100.00;98921.72;5031068;28;20128;-59
2021/08/12 03:21:16;;;;;;;14.45;11.75;;;;;;;20.37;100.00;98921.56;5031544;28;20068;-60
2021/08/12 03:23:42;;;;;;;16.10;12.15;;;;;;;20.39;100.00;98927.56;5031082;28;20038;-58
2021/08/12 03:26:10;;;;;;;14.50;11.18;;;;;;;20.40;100.00;98931.03;5030135;28;20095;-58
2021/08/12 03:28:36;;;;;;;16.65;12.75;;;;;;;20.42;100.00;98940.47;5020003;28;20489;-58
2021/08/12 03:31:02;;;;;;;21.20;13.60;;;;;;;20.43;100.00;98938.66;5032190;28;20049;-58
2021/08/12 03:33:30;;;;;;;18.75;13.57;;;;;;;20.43;100.00;98951.88;5031068;28;20056;-59
2021/08/12 03:35:57;;;;;;;17.75;13.38;;;;;;;20.44;100.00;98951.75;5014022;28;20068;-58
2021/08/12 03:38:24;;;;;;;15.13;12.05;;;;;;;20.45;100.00;98955.22;5032056;28;20481;-59
2021/08/12 03:40:50;;;;;;;19.17;12.90;;;;;;;20.44;100.00;98946.47;5031053;28;20053;-59
2021/08/12 03:43:17;;;;;;;19.83;13.25;;;;;;;20.48;100.00;98947.88;5020128;28;20072;-58
2021/08/12 03:45:43;;;;;;;16.60;13.13;;;;;;;20.51;100.00;98944.97;5011757;28;20042;-58
2021/08/12 03:48:10;;;;;;;15.90;12.15;;;;;;;20.56;100.00;98952.50;5010810;28;20429;-58
2021/08/12 03:50:36;;;;;;;17.20;12.82;;;;;;;20.54;100.00;98949.97;5016462;28;20049;-57
2021/08/12 03:53:03;;;;;;;14.07;11.82;;;;;;;20.53;100.00;98948.31;5030550;28;20037;-58
2021/08/12 03:55:29;;;;;;;16.63;12.40;;;;;;;20.54;100.00;98946.50;5030595;28;20045;-58
2021/08/12 03:57:55;;;;;;;15.52;12.18;;;;;;;20.53;100.00;98945.66;5031069;28;20076;-58
2021/08/12 04:00:21;;;;;;;14.57;12.32;;;;;;;20.53;100.00;98950.09;5031191;28;20534;-58
2021/08/12 04:02:48;;;;;;;17.70;12.70;;;;;;;20.54;100.00;98955.25;5030710;28;20043;-58
2021/08/12 04:05:14;;;;;;;16.23;11.98;;;;;;;20.52;100.00;98951.91;5025847;28;20069;-58
2021/08/12 04:07:41;;;;;;;16.02;13.80;;;;;;;20.54;100.00;98952.63;5010589;28;20504;-58
2021/08/12 04:10:08;;;;;;;15.18;12.32;;;;;;;20.49;100.00;98927.59;5010480;28;20053;-58
2021/08/12 04:12:34;;;;;;;14.68;12.77;;;;;;;20.61;100.00;98942.38;5017101;28;20072;-57
2021/08/12 04:15:00;;;;;;;15.63;12.45;;;;;;;20.63;100.00;98946.53;5031094;28;20521;-58
2021/08/12 04:17:26;;;;;;;14.95;12.70;;;;;;;20.68;100.00;98943.47;5029827;28;20523;-58
2021/08/12 04:19:52;;;;;;;13.98;12.48;;;;;;;20.71;100.00;98930.88;5031367;28;20037;-58
2021/08/12 04:22:18;;;;;;;16.83;12.82;;;;;;;20.77;100.00;98928.66;5029795;28;20049;-59
2021/08/12 04:24:44;;;;;;;17.98;13.93;;;;;;;20.82;100.00;98937.84;5029588;28;20429;-59
2021/08/12 04:27:13;;;;;;;16.17;13.20;;;;;;;20.86;100.00;98947.16;5029692;28;20112;-59
2021/08/12 04:29:42;;;;;;;20.23;12.57;;;;;;;20.89;100.00;98940.75;5029648;28;20048;-58
2021/08/12 04:32:08;;;;;;;15.82;12.90;;;;;;;20.81;100.00;98916.84;5031051;28;20045;-59
2021/08/12 04:34:36;;;;;;;18.88;14.05;;;;;;;20.96;100.00;98945.38;5029887;28;20041;-59
2021/08/12 04:37:01;;;;;;;23.88;13.93;;;;;;;21.00;100.00;98948.56;5029697;28;20042;-58
2021/08/12 04:39:27;;;;;;;15.82;12.77;;;;;;;20.92;100.00;98930.78;5028869;28;20064;-58
2021/08/12 04:41:53;;;;;;;17.88;12.98;;;;;;;21.05;100.00;98941.91;5030005;28;20174;-58
2021/08/12 04:44:19;;;;;;;20.17;14.85;;;;;;;21.08;100.00;98943.47;5031094;28;20136;-58
2021/08/12 04:46:46;;;;;;;18.50;13.63;;;;;;;21.09;100.00;98943.31;5029581;28;20041;-58
2021/08/12 04:49:13;;;;;;;18.08;13.90;;;;;;;21.13;100.00;98931.50;5028798;28;20045;-58
2021/08/12 04:51:39;;;;;;;17.85;13.98;;;;;;;21.16;100.00;98930.41;5028679;28;20428;-58
2021/08/12 04:54:05;;;;;;;20.20;14.60;;;;;;;21.20;100.00;98931.78;5029575;28;20037;-59
2021/08/12 04:56:32;;;;;;;19.77;14.48;;;;;;;21.22;100.00;98932.50;5029424;28;20037;-58
2021/08/12 04:58:58;;;;;;;22.33;14.55;;;;;;;21.25;100.00;98934.84;5029663;28;20538;-58
2021/08/12 05:01:27;;;;;;;23.40;15.52;;;;;;;21.24;100.00;98933.22;5030111;28;20536;-59
2021/08/12 05:03:53;;;;;;;22.88;15.75;;;;;;;21.26;100.00;98925.13;5012320;28;20049;-59
2021/08/12 05:06:19;;;;;;;25.50;16.17;;;;;;;21.25;100.00;98919.00;5028827;28;20076;-58
2021/08/12 05:08:44;;;;;;;21.67;14.80;;;;;;;21.25;100.00;98919.00;5030404;28;20046;-59
2021/08/12 05:11:11;;;;;;;20.83;14.60;;;;;;;21.29;100.00;98909.00;5012224;28;20428;-58
2021/08/12 05:13:37;;;;;;;25.25;15.50;;;;;;;21.35;100.00;98906.63;5028816;28;20479;-59
2021/08/12 05:16:06;;;;;;;23.73;16.02;;;;;;;21.42;100.00;98898.97;4994741;28;20100;-59
2021/08/12 05:18:32;;;;;;;20.60;14.23;;;;;;;21.48;100.00;98880.72;5014197;28;20049;-59
2021/08/12 05:20:58;;;;;;;23.95;16.27;;;;;;;21.59;100.00;98868.31;5008909;28;20417;-59
2021/08/12 05:23:23;;;;;;;22.20;14.68;;;;;;;21.67;100.00;98857.88;5010714;28;20083;-59
2021/08/12 05:25:49;;;;;;;21.45;14.85;;;;;;;21.76;100.00;98849.91;5028970;28;20064;-59
2021/08/12 05:28:16;;;;;;;22.42;15.43;;;;;;;21.83;100.00;98851.00;5028693;28;20039;-59
2021/08/12 05:30:41;;;;;;;23.95;16.17;;;;;;;21.89;100.00;98844.28;5027943;28;20041;-58
2021/08/12 05:33:07;;;;;;;23.80;16.13;;;;;;;21.85;100.00;98819.09;5029015;28;20537;-58
2021/08/12 05:35:33;;;;;;;22.45;15.55;;;;;;;22.01;100.00;98803.47;5028700;28;20498;-59
2021/08/12 05:37:59;;;;;;;23.58;16.42;;;;;;;22.25;100.00;98814.34;5029548;28;20095;-59
2021/08/12 05:40:25;;;;;;;26.60;17.75;;;;;;;22.34;100.00;98805.53;5030155;28;20048;-57
2021/08/12 05:42:52;;;;;;;23.45;16.42;;;;;;;22.22;100.00;98776.75;5028795;28;20073;-59
2021/08/12 05:45:18;;;;;;;23.20;17.70;;;;;;;22.46;100.00;98813.25;5027378;28;20091;-58
2021/08/12 05:47:43;;;;;;;28.15;19.40;;;;;;;22.47;100.00;98815.75;5029672;28;20045;-59
2021/08/12 05:50:09;;;;;;;33.90;22.15;;;;;;;22.47;100.00;98818.41;5008236;28;20140;-58
2021/08/12 05:52:36;;;;;;;28.90;20.48;;;;;;;22.47;100.00;98820.22;5024926;28;20049;-58
2021/08/12 05:55:04;;;;;;;34.75;21.92;;;;;;;22.48;100.00;98806.84;5022804;28;20045;-58
2021/08/12 05:57:30;;;;;;;37.15;23.92;;;;;;;22.55;100.00;98793.81;5028389;28;20053;-59
2021/08/12 05:59:56;;;;;;;39.40;24.65;;;;;;;22.59;100.00;98785.44;5028018;28;20060;-59
2021/08/12 06:02:22;;;;;;;35.70;23.58;;;;;;;22.78;98.74;98801.22;5028470;28;20049;-58
2021/08/12 06:04:49;;;;;;;27.23;20.23;;;;;;;22.85;97.95;98801.44;5028545;28;20090;-58
2021/08/12 06:07:15;;;;;;;39.65;24.15;;;;;;;22.91;97.59;98810.59;5012312;28;20543;-58
2021/08/12 06:09:42;;;;;;;28.95;21.48;;;;;;;22.93;97.45;98814.75;5027587;28;20781;-59
2021/08/12 06:12:08;;;;;;;27.88;20.92;;;;;;;22.91;97.32;98834.47;5027235;28;20042;-60
2021/08/12 06:14:34;;;;;;;40.75;25.33;;;;;;;22.79;96.58;98812.66;5030560;28;20049;-59
2021/08/12 06:17:04;;;;;;;34.33;23.45;;;;;;;22.89;95.89;98816.06;5032742;28;20041;-59
2021/08/12 06:19:32;;;;;;;35.28;23.15;;;;;;;22.96;95.19;98819.78;5015525;28;20475;-60
2021/08/12 06:21:58;;;;;;;33.33;22.77;;;;;;;23.09;94.45;98828.16;5015357;28;20124;-57
2021/08/12 06:24:23;;;;;;;36.88;24.17;;;;;;;23.06;94.30;98817.03;5031591;28;20444;-58
2021/08/12 06:26:49;;;;;;;38.28;26.30;;;;;;;23.11;94.96;98836.81;5032559;28;20567;-59
2021/08/12 06:29:15;;;;;;;35.45;24.77;;;;;;;23.13;94.83;98845.44;5031526;28;20135;-57
2021/08/12 06:31:41;;;;;;;34.75;25.92;;;;;;;23.13;94.65;98866.63;5031656;28;20045;-58
2021/08/12 06:34:08;;;;;;;33.95;24.17;;;;;;;23.10;93.98;98869.59;5031412;28;20044;-58
2021/08/12 06:36:35;;;;;;;35.63;24.92;;;;;;;23.13;92.80;98873.78;5014706;28;20049;-57
2021/08/12 06:39:01;;;;;;;31.10;23.63;;;;;;;23.06;92.28;98881.50;5014566;28;20049;-59
2021/08/12 06:41:29;;;;;;;36.33;23.92;;;;;;;22.90;93.07;98875.19;5031910;28;20044;-59
2021/08/12 06:44:01;;;;;;;34.58;25.92;;;;;;;22.87;94.06;98876.34;5015212;28;20056;-58
2021/08/12 06:46:27;;;;;;;40.25;27.88;;;;;;;22.85;95.12;98890.72;5032273;28;20038;-58
2021/08/12 06:48:54;;;;;;;40.53;26.33;;;;;;;22.72;95.18;98899.03;5014516;28;20033;-60
2021/08/12 06:51:19;;;;;;;39.00;27.15;;;;;;;22.55;94.74;98898.00;5026040;28;20048;-58
2021/08/12 06:53:48;;;;;;;42.65;28.77;;;;;;;22.54;95.19;98892.84;5040911;28;20048;-60
2021/08/12 06:56:16;;;;;;;41.25;28.48;;;;;;;22.57;95.96;98890.72;5030718;28;20063;-58
2021/08/12 06:58:43;;;;;;;41.53;29.48;;;;;;;22.60;96.55;98893.09;5030028;28;20069;-58
2021/08/12 07:01:10;;;;;;;43.08;30.38;;;;;;;22.63;97.19;98891.94;5030957;28;20193;-60
2021/08/12 07:03:36;;;;;;;43.15;28.10;;;;;;;22.62;96.59;98890.25;5026435;28;20045;-61
2021/08/12 07:06:02;;;;;;;31.33;23.17;;;;;;;22.57;95.18;98874.81;5027071;28;20045;-56
2021/08/12 07:08:29;;;;;;;38.50;28.25;;;;;;;22.68;95.02;98887.03;5022535;28;20125;-58
2021/08/12 07:10:55;;;;;;;39.42;26.92;;;;;;;22.59;96.80;98870.22;5025871;28;20124;-59
2021/08/12 07:13:22;;;;;;;39.47;26.13;;;;;;;22.65;97.53;98887.34;5029896;28;20045;-58
2021/08/12 07:15:48;;;;;;;38.95;26.65;;;;;;;22.63;97.97;98892.78;5029793;28;20554;-59
2021/08/12 07:18:14;;;;;;;34.00;25.52;;;;;;;22.66;96.75;98881.88;5030290;28;20474;-56
2021/08/12 07:20:40;;;;;;;37.83;26.00;;;;;;;22.53;96.46;98857.56;5031181;28;20063;-57
2021/08/12 07:23:06;;;;;;;35.58;26.20;;;;;;;22.75;96.83;98881.03;5030060;28;20034;-59
2021/08/12 07:25:32;;;;;;;37.92;25.48;;;;;;;22.80;96.55;98888.53;5028780;28;20045;-59
2021/08/12 07:27:59;;;;;;;36.60;25.65;;;;;;;22.65;96.07;98879.38;5029227;28;20160;-63
2021/08/12 07:30:26;;;;;;;37.63;25.58;;;;;;;22.73;96.14;98906.84;5029621;28;20040;-61
2021/08/12 07:32:52;;;;;;;39.03;25.88;;;;;;;22.69;96.81;98901.94;5013656;28;20041;-60
2021/08/12 07:35:21;;;;;;;36.55;25.67;;;;;;;22.70;97.18;98890.38;5013361;28;20048;-63
2021/08/12 07:37:47;;;;;;;;;;;;;;;22.71;97.60;98889.44;5030244;28;20050;-62
2021/08/12 07:40:13;;;;;;;38.10;26.45;;;;;;;22.67;97.83;98886.19;5044186;28;19923;-64
2021/08/12 07:42:39;;;;;;;39.97;26.95;;;;;;;22.65;98.54;98879.38;5027195;28;20421;-65
2021/08/12 07:45:06;;;;;;;35.28;26.38;;;;;;;22.59;99.82;98886.09;5031225;28;20091;-66
2021/08/12 07:47:32;;;;;;;43.03;27.65;;;;;;;22.56;100.00;98883.72;5012793;28;20056;-68
2021/08/12 07:49:59;;;;;;;36.20;25.63;;;;;;;22.51;100.00;98872.75;5031211;28;20429;-70
2021/08/12 07:52:25;;;;;;;41.45;27.73;;;;;;;22.46;100.00;98858.28;5031624;28;20147;-63
2021/08/12 07:54:51;;;;;;;41.80;27.98;;;;;;;22.47;100.00;98854.66;5031221;28;20599;-66
2021/08/12 07:57:18;;;;;;;40.53;26.52;;;;;;;22.50;100.00;98857.03;5030311;28;20085;-61
2021/08/12 07:59:43;;;;;;;38.67;26.45;;;;;;;22.54;100.00;98869.00;5030453;28;20073;-58
2021/08/12 08:02:10;;;;;;;39.35;26.38;;;;;;;22.59;100.00;98877.31;5029123;28;20131;-64
2021/08/12 08:04:36;;;;;;;38.17;25.42;;;;;;;22.63;100.00;98876.03;5030985;28;20569;-59
2021/08/12 08:07:02;;;;;;;40.13;25.17;;;;;;;22.63;100.00;98874.22;5031543;28;20140;-60
2021/08/12 08:09:28;;;;;;;39.30;26.52;;;;;;;22.55;100.00;98866.19;5029455;28;20041;-62
2021/08/12 08:11:53;;;;;;;38.15;24.88;;;;;;;22.71;100.00;98881.47;5026327;28;20520;-62
2021/08/12 08:14:19;;;;;;;35.63;25.02;;;;;;;22.76;100.00;98874.75;5030654;28;20029;-60
2021/08/12 08:16:45;;;;;;;37.08;25.83;;;;;;;22.75;100.00;98880.19;5029031;28;20044;-63
2021/08/12 08:19:11;;;;;;;36.90;25.52;;;;;;;22.73;100.00;98877.69;5028250;28;20509;-61
2021/08/12 08:21:39;;;;;;;39.88;27.10;;;;;;;22.73;100.00;98874.19;5030600;28;20037;-60
2021/08/12 08:24:07;;;;;;;41.28;28.05;;;;;;;22.75;100.00;98873.06;5029831;28;20052;-63
2021/08/12 08:26:33;;;;;;;37.72;26.90;;;;;;;22.78;100.00;98880.72;5028989;28;20052;-58
2021/08/12 08:28:59;;;;;;;41.28;27.83;;;;;;;22.78;100.00;98877.22;5029545;28;20045;-58
2021/08/12 08:31:25;;;;;;;44.20;28.50;;;;;;;22.73;100.00;98892.75;5030513;28;20041;-58
2021/08/12 08:33:50;;;;;;;39.97;27.10;;;;;;;22.66;100.00;98894.31;5029604;28;20128;-57
2021/08/12 08:36:16;;;;;;;45.30;28.52;;;;;;;22.58;100.00;98892.38;5029192;28;20041;-58
2021/08/12 08:38:42;;;;;;;48.22;30.50;;;;;;;22.53;100.00;98896.44;5028010;28;20468;-58
2021/08/12 08:41:08;;;;;;;39.85;26.83;;;;;;;22.51;100.00;98898.41;5029062;28;20072;-57
2021/08/12 08:43:34;;;;;;;39.05;27.83;;;;;;;22.53;100.00;98892.00;5029682;28;20033;-58
2021/08/12 08:46:02;;;;;;;45.22;28.50;;;;;;;22.63;100.00;98887.47;5030475;28;20501;-58
2021/08/12 08:48:31;;;;;;;47.65;28.38;;;;;;;22.73;100.00;98884.78;5028796;28;20412;-59
2021/08/12 08:50:58;;;;;;;39.97;27.80;;;;;;;22.80;100.00;98884.06;5029711;28;20130;-57
2021/08/12 08:53:25;;;;;;;43.72;28.38;;;;;;;22.91;100.00;98888.31;5012126;28;20476;-61
2021/08/12 08:55:51;;;;;;;40.95;28.65;;;;;;;23.00;100.00;98891.88;5030874;28;20513;-60
2021/08/12 08:58:19;;;;;;;42.25;30.85;;;;;;;23.03;100.00;98894.25;5029303;28;20144;-54
2021/08/12 09:00:45;;;;;;;43.00;28.40;;;;;;;23.03;100.00;98900.34;5029468;28;20044;-60
2021/08/12 09:12:00;;;;;;;41.50;30.17;;;;;;;23.39;96.78;98887.94;4857675;23;20437;-59
2021/08/12 09:14:33;;;;;;;41.78;29.27;;;;;;;23.61;94.48;98892.78;4822564;29;20048;-58
2021/08/12 09:16:59;;;;;;;45.53;33.30;;;;;;;23.83;92.38;98891.44;4806489;29;20526;-53
2021/08/12 09:19:26;;;;;;;39.17;28.50;;;;;;;24.03;91.03;98892.91;4820784;29;20122;-60
2021/08/12 09:21:55;;;;;;;42.42;29.02;;;;;;;24.11;90.30;98888.63;4835669;29;20054;-56
2021/08/12 09:24:20;;;;;;;39.75;27.42;;;;;;;24.15;89.68;98882.84;4821588;29;20049;-58
2021/08/12 09:26:48;;;;;;;44.28;31.55;;;;;;;24.17;89.01;98886.22;4834351;29;20049;-61
2021/08/12 09:29:29;;;;;;;41.35;29.33;;;;;;;24.14;88.98;98891.78;4846780;29;20045;-57
2021/08/12 09:31:59;;;;;;;41.95;28.38;;;;;;;24.04;88.66;98888.41;4815346;29;20046;-52
2021/08/12 09:34:43;;;;;;;42.38;28.42;;;;;;;23.93;88.46;98894.00;4842662;29;20064;-53
2021/08/12 09:37:09;;;;;;;40.30;28.15;;;;;;;23.87;87.37;98884.00;4824296;29;20073;-53
2021/08/12 09:39:36;;;;;;;41.80;29.08;;;;;;;23.85;86.58;98878.03;4824292;29;20148;-50
2021/08/12 09:42:05;;;;;;;44.78;28.75;;;;;;;23.85;86.48;98878.03;4834575;29;20049;-54
2021/08/12 09:44:50;;;;;;;43.07;28.43;;;;;;;23.87;87.14;98876.03;4840539;29;20073;-57
2021/08/12 09:47:27;;;;;;;42.67;30.25;;;;;;;23.95;87.41;98892.88;4837090;29;20629;-56
2021/08/12 09:50:02;;;;;;;38.80;28.15;;;;;;;24.02;87.43;98883.25;4838070;29;20052;-52
2021/08/12 09:52:37;;;;;;;41.28;28.25;;;;;;;24.11;86.70;98878.84;4840021;29;20049;-54
2021/08/12 09:55:21;;;;;;;39.30;28.42;;;;;;;24.29;86.10;98881.44;4842351;29;20053;-50
2021/08/12 09:57:49;;;;;;;36.72;28.38;;;;;;;24.43;84.83;98883.50;4837789;29;20046;-52
2021/08/12 10:00:25;;;;;;;36.83;27.88;;;;;;;24.49;83.82;98877.56;4842247;29;20118;-59
2021/08/12 10:02:52;;;;;;;36.80;28.48;;;;;;;24.32;84.33;98876.66;4837493;29;20050;-55
2021/08/12 10:05:18;;;;;;;35.25;27.90;;;;;;;24.25;85.27;98896.88;4825406;29;20046;-57
2021/08/12 10:07:44;;;;;;;38.75;29.60;;;;;;;24.04;86.73;98899.88;4843571;29;20057;-56
2021/08/12 10:10:20;;;;;;;39.50;30.58;;;;;;;23.86;88.15;98896.47;4820375;29;20053;-50
2021/08/12 10:12:52;;;;;;;39.35;30.40;;;;;;;23.72;89.36;98907.63;4821176;29;20070;-55
2021/08/12 10:15:31;;;;;;;43.38;30.55;;;;;;;23.62;90.50;98898.91;4838320;29;20217;-56
2021/08/12 10:17:58;;;;;;;41.65;30.17;;;;;;;23.48;90.49;98883.56;4838036;29;20045;-54
2021/08/12 10:20:30;;;;;;;41.15;30.30;;;;;;;23.46;91.88;98898.78;4839746;29;20126;-51
2021/08/12 10:22:58;;;;;;;43.30;30.88;;;;;;;23.41;93.31;98901.88;4840348;29;20049;-55
2021/08/12 10:25:25;;;;;;;44.08;30.90;;;;;;;23.37;94.03;98897.88;4848128;29;20216;-53
2021/08/12 10:28:01;;;;;;;51.05;32.15;;;;;;;23.32;94.28;98894.00;4831281;29;20046;-51
2021/08/12 10:30:27;;;;;;;41.33;30.52;;;;;;;23.27;94.29;98899.78;4846788;29;20054;-53
2021/08/12 10:32:55;;;;;;;42.88;30.65;;;;;;;23.24;95.31;98902.72;4851282;29;20045;-52
2021/08/12 10:35:26;;;;;;;43.78;29.83;;;;;;;23.24;95.73;98897.41;4856681;29;20037;-52
2021/08/12 10:37:54;;;;;;;45.97;29.92;;;;;;;23.19;96.05;98895.22;4854210;29;20064;-55
2021/08/12 10:40:27;;;;;;;48.00;31.65;;;;;;;23.03;97.55;98879.13;4843574;29;20136;-52
2021/08/12 10:42:54;;;;;;;51.30;32.10;;;;;;;23.10;98.73;98887.34;4833930;29;20077;-55
2021/08/12 10:45:22;;;;;;;58.70;34.60;;;;;;;23.06;100.00;98902.72;4838090;29;20055;-57
2021/08/12 10:47:54;;;;;;;52.70;31.75;;;;;;;23.01;100.00;98889.09;4838380;29;20101;-51
2021/08/12 10:50:23;;;;;;;54.42;32.70;;;;;;;22.99;100.00;98899.00;4807645;29;20045;-54
2021/08/12 10:53:06;;;;;;;59.95;33.22;;;;;;;22.98;100.00;98901.78;4838797;29;20046;-53
2021/08/12 10:55:33;;;;;;;51.25;32.67;;;;;;;22.95;100.00;98894.97;4836526;29;20119;-57
2021/08/12 10:58:17;;;;;;;44.78;31.88;;;;;;;22.96;100.00;98901.13;4840719;29;20080;-52
2021/08/12 11:00:46;;;;;;;45.97;32.45;;;;;;;22.93;100.00;98912.00;4841021;29;20053;-55
2021/08/12 11:03:12;;;;;;;50.13;31.73;;;;;;;22.76;100.00;98888.00;4844948;29;20049;-51
2021/08/12 11:06:19;;;;;;;42.78;29.25;;;;;;;22.84;100.00;98911.09;4834759;29;20045;-53
2021/08/12 11:08:52;;;;;;;46.25;30.88;;;;;;;22.89;99.17;98908.00;4825492;29;20058;-60
2021/08/12 11:11:21;;;;;;;50.75;31.27;;;;;;;22.98;98.53;98917.69;4823600;29;20085;-58
2021/08/12 11:13:47;;;;;;;;;;;;;;;23.02;98.81;98919.09;4824100;29;20975;-59
2021/08/12 11:16:14;;;;;;;51.03;31.33;;;;;;;23.06;98.52;98929.22;4839804;29;19952;-60
2021/08/12 11:18:47;;;;;;;53.92;32.17;;;;;;;23.14;97.70;98924.00;4821893;29;20122;-59
2021/08/12 11:21:31;;;;;;;49.63;31.25;;;;;;;23.29;96.80;98919.00;4830418;29;20070;-59
2021/08/12 11:23:58;;;;;;;41.58;29.95;;;;;;;23.32;95.75;98921.38;4846815;29;20087;-60